createdAt,value
2022-10-05T03:31:45.887Z,14.90
2022-10-05T03:32:46.825Z,13.70
2022-10-05T03:33:46.838Z,17.40
2022-10-05T03:34:46.817Z,13.90
2022-10-05T03:35:46.814Z,15.30
2022-10-05T03:36:47.192Z,14.30
2022-10-05T03:37:46.789Z,13.70
2022-10-05T03:38:46.783Z,15.00
2022-10-05T03:39:46.775Z,13.80
2022-10-05T03:40:46.748Z,14.80
2022-10-05T03:41:46.745Z,14.20
2022-10-05T03:42:46.928Z,14.70
2022-10-05T03:43:46.723Z,15.90
2022-10-05T03:44:46.726Z,15.00
2022-10-05T03:45:46.774Z,17.20
2022-10-05T03:46:47.003Z,14.10
2022-10-05T03:47:46.680Z,14.80
2022-10-05T03:48:46.691Z,15.50
2022-10-05T03:49:46.778Z,15.70
2022-10-05T03:50:46.638Z,15.50
2022-10-05T03:51:46.654Z,15.40
2022-10-05T03:52:46.613Z,16.60
2022-10-05T03:53:46.618Z,16.20
2022-10-05T03:54:46.620Z,13.20
2022-10-05T03:55:46.600Z,15.10
2022-10-05T03:56:46.910Z,14.70
2022-10-05T03:57:46.627Z,15.40
2022-10-05T03:58:46.550Z,15.30
2022-10-05T03:59:46.590Z,15.60
2022-10-05T04:00:46.527Z,14.20
2022-10-05T04:01:46.550Z,14.00
2022-10-05T04:02:46.592Z,14.20
2022-10-05T04:03:46.526Z,16.90
2022-10-05T04:04:46.485Z,15.10
2022-10-05T04:05:46.509Z,16.20
2022-10-05T04:06:46.799Z,15.50
2022-10-05T04:07:46.517Z,13.60
2022-10-05T04:08:48.013Z,13.80
2022-10-05T04:09:46.450Z,15.50
2022-10-05T04:10:46.454Z,15.70
2022-10-05T04:11:46.422Z,15.10
2022-10-05T04:12:46.414Z,14.30
2022-10-05T04:13:46.410Z,13.40
2022-10-05T04:14:46.378Z,15.00
2022-10-05T04:15:46.439Z,16.90
2022-10-05T04:16:46.745Z,16.40
2022-10-05T04:17:46.358Z,14.00
2022-10-05T04:18:46.343Z,14.20
2022-10-05T04:19:46.339Z,13.30
2022-10-05T04:20:46.320Z,13.70
2022-10-05T04:21:46.346Z,14.10
2022-10-05T04:22:46.324Z,14.60
2022-10-05T04:23:46.295Z,13.40
2022-10-05T04:24:46.276Z,12.40
2022-10-05T04:25:46.288Z,15.10
2022-10-05T04:26:46.672Z,15.60
2022-10-05T04:27:46.294Z,14.10
2022-10-05T04:28:46.455Z,12.00
2022-10-05T04:29:46.230Z,15.30
2022-10-05T04:30:46.202Z,15.30
2022-10-05T04:31:46.320Z,15.30
2022-10-05T04:32:46.239Z,14.30
2022-10-05T04:33:46.206Z,14.70
2022-10-05T04:34:46.163Z,15.70
2022-10-05T04:35:46.174Z,14.10
2022-10-05T04:36:46.474Z,15.80
2022-10-05T04:37:46.727Z,12.40
2022-10-05T04:38:46.159Z,14.80
2022-10-05T04:39:46.130Z,14.70
2022-10-05T04:40:46.104Z,14.00
2022-10-05T04:41:46.135Z,12.70
2022-10-05T04:42:46.091Z,13.90
2022-10-05T04:43:46.132Z,14.50
2022-10-05T04:44:46.061Z,15.20
2022-10-05T04:45:46.079Z,15.60
2022-10-05T04:46:46.406Z,14.90
2022-10-05T04:47:46.070Z,14.90
2022-10-05T04:48:46.019Z,14.30
2022-10-05T04:49:46.041Z,15.20
2022-10-05T04:50:46.012Z,14.40
2022-10-05T04:51:50.920Z,15.40
2022-10-05T04:52:45.991Z,16.00
2022-10-05T04:53:45.982Z,16.30
2022-10-05T04:54:45.978Z,15.30
2022-10-05T04:55:45.956Z,15.10
2022-10-05T04:56:46.191Z,14.90
2022-10-05T04:57:45.983Z,15.60
2022-10-05T04:58:45.917Z,17.10
2022-10-05T04:59:45.905Z,15.50
2022-10-05T05:00:45.957Z,15.50
2022-10-05T05:01:45.885Z,16.00
2022-10-05T05:02:45.860Z,15.20
2022-10-05T05:03:45.965Z,13.80
2022-10-05T05:04:50.830Z,15.60
2022-10-05T05:06:12.198Z,15.00
2022-10-05T05:06:46.098Z,15.40
2022-10-05T05:07:45.838Z,16.20
2022-10-05T05:08:45.796Z,16.60
2022-10-05T05:09:45.804Z,14.90
2022-10-05T05:10:45.774Z,16.10
2022-10-05T05:11:45.836Z,15.00
2022-10-05T05:12:45.754Z,15.90
2022-10-05T05:13:45.758Z,14.30
2022-10-05T05:14:45.732Z,15.60
2022-10-05T05:15:45.755Z,15.80
2022-10-05T05:16:46.097Z,14.80
2022-10-05T05:17:45.715Z,15.00
2022-10-05T05:18:45.691Z,17.50
2022-10-05T05:19:45.691Z,16.40
2022-10-05T05:20:45.671Z,14.80
2022-10-05T05:21:45.670Z,15.80
2022-10-05T05:22:45.899Z,16.50
2022-10-05T05:23:45.648Z,17.00
2022-10-05T05:24:45.623Z,15.10
2022-10-05T05:25:45.627Z,16.30
2022-10-05T05:26:45.688Z,17.10
2022-10-05T05:27:45.632Z,15.70
2022-10-05T05:28:45.588Z,15.90
2022-10-05T05:29:45.582Z,17.80
2022-10-05T05:30:45.564Z,17.20
2022-10-05T05:31:45.695Z,15.10
2022-10-05T05:32:45.544Z,14.30
2022-10-05T05:33:45.712Z,15.50
2022-10-05T05:34:45.530Z,16.40
2022-10-05T05:35:45.524Z,18.30
2022-10-05T05:36:45.763Z,18.00
2022-10-05T05:37:45.496Z,16.10
2022-10-05T05:38:45.472Z,14.80
2022-10-05T05:39:45.498Z,15.40
2022-10-05T05:40:45.456Z,13.90
2022-10-05T05:41:45.455Z,18.00
2022-10-05T05:42:45.434Z,14.90
2022-10-05T05:43:45.433Z,16.30
2022-10-05T05:44:45.456Z,14.90
2022-10-05T05:45:45.414Z,16.10
2022-10-05T05:47:02.992Z,14.20
2022-10-05T05:47:45.468Z,17.10
2022-10-05T05:48:45.372Z,17.40
2022-10-05T05:49:45.374Z,15.50
2022-10-05T05:50:45.392Z,16.00
2022-10-05T05:51:45.346Z,16.70
2022-10-05T05:52:45.321Z,15.70
2022-10-05T05:53:45.327Z,15.40
2022-10-05T05:54:45.303Z,14.80
2022-10-05T05:55:45.329Z,15.50
2022-10-05T05:56:45.628Z,18.50
2022-10-05T05:57:45.283Z,16.60
2022-10-05T05:58:45.277Z,15.00
2022-10-05T05:59:45.259Z,14.50
2022-10-05T06:00:45.243Z,18.50
2022-10-05T06:01:45.343Z,15.90
2022-10-05T06:02:45.380Z,17.30
2022-10-05T06:03:45.219Z,16.00
2022-10-05T06:04:45.193Z,15.00
2022-10-05T06:05:45.222Z,16.70
2022-10-05T06:06:45.480Z,16.20
2022-10-05T06:07:45.192Z,15.00
2022-10-05T06:08:45.160Z,15.90
2022-10-05T06:09:45.153Z,16.60
2022-10-05T06:10:45.127Z,16.60
2022-10-05T06:11:45.131Z,15.50
2022-10-05T06:12:45.129Z,16.20
2022-10-05T06:13:45.112Z,16.90
2022-10-05T06:14:45.085Z,14.60
2022-10-05T06:15:45.088Z,16.50
2022-10-05T06:16:45.492Z,16.20
2022-10-05T06:17:45.091Z,17.00
2022-10-05T06:18:45.043Z,15.20
2022-10-05T06:19:45.048Z,15.10
2022-10-05T06:20:45.019Z,15.00
2022-10-05T06:21:45.024Z,14.70
2022-10-05T06:22:45.009Z,14.60
2022-10-05T06:23:45.035Z,17.40
2022-10-05T06:24:44.977Z,14.80
2022-10-05T06:25:44.981Z,15.80
2022-10-05T06:26:45.286Z,15.90
2022-10-05T06:27:44.960Z,15.40
2022-10-05T06:28:44.967Z,15.40
2022-10-05T06:29:44.934Z,15.10
2022-10-05T06:30:44.915Z,15.30
2022-10-05T06:31:44.971Z,15.80
2022-10-05T06:32:44.893Z,14.60
2022-10-05T06:33:44.897Z,16.00
2022-10-05T06:34:44.952Z,13.60
2022-10-05T06:35:44.877Z,17.80
2022-10-05T06:36:45.176Z,15.10
2022-10-05T06:37:44.857Z,16.80
2022-10-05T06:38:44.830Z,15.20
2022-10-05T06:39:44.857Z,16.80
2022-10-05T06:40:44.818Z,14.60
2022-10-05T06:41:44.795Z,15.70
2022-10-05T06:42:44.799Z,14.90
2022-10-05T06:43:44.779Z,16.30
2022-10-05T06:44:44.779Z,14.60
2022-10-05T06:45:44.804Z,16.00
2022-10-05T06:46:45.014Z,15.30
2022-10-05T06:47:44.730Z,16.60
2022-10-05T06:48:44.736Z,15.50
2022-10-05T06:49:44.708Z,15.20
2022-10-05T06:50:44.735Z,16.40
2022-10-05T06:51:44.692Z,15.00
2022-10-05T06:52:44.689Z,14.00
2022-10-05T06:53:44.665Z,16.70
2022-10-05T06:54:44.683Z,16.20
2022-10-05T06:55:44.648Z,15.30
2022-10-05T06:56:44.893Z,15.60
2022-10-05T06:57:44.625Z,16.20
2022-10-05T06:58:44.634Z,15.30
2022-10-05T06:59:44.600Z,15.00
2022-10-05T07:00:44.672Z,18.00
2022-10-05T07:01:44.864Z,14.60
2022-10-05T07:02:44.617Z,16.70
2022-10-05T07:03:44.559Z,15.70
2022-10-05T07:04:44.574Z,14.90
2022-10-05T07:05:44.538Z,14.50
2022-10-05T07:06:44.542Z,15.40
2022-10-05T07:07:44.519Z,14.50
2022-10-05T07:08:44.575Z,14.70
2022-10-05T07:09:44.494Z,16.30
2022-10-05T07:10:44.500Z,15.20
2022-10-05T07:11:44.983Z,15.30
2022-10-05T07:12:44.479Z,16.30
2022-10-05T07:13:44.452Z,14.90
2022-10-05T07:14:44.483Z,14.70
2022-10-05T07:15:44.431Z,13.80
2022-10-05T07:16:44.465Z,14.80
2022-10-05T07:17:44.556Z,14.90
2022-10-05T07:18:44.410Z,15.00
2022-10-05T07:19:44.413Z,15.30
2022-10-05T07:20:48.343Z,15.80
2022-10-05T07:21:44.660Z,15.60
2022-10-05T07:22:44.378Z,15.00
2022-10-05T07:23:44.346Z,14.80
2022-10-05T07:24:44.348Z,16.00
2022-10-05T07:25:44.355Z,14.90
2022-10-05T07:26:44.680Z,13.40
2022-10-05T07:27:47.124Z,15.50
2022-10-05T07:28:44.355Z,15.40
2022-10-05T07:29:44.276Z,14.00
2022-10-05T07:30:44.361Z,13.20
2022-10-05T07:31:44.277Z,15.60
2022-10-05T07:32:44.262Z,14.20
2022-10-05T07:33:44.243Z,13.50
2022-10-05T07:34:44.240Z,14.80
2022-10-05T07:35:44.212Z,15.30
2022-10-05T07:36:44.702Z,13.40
2022-10-05T07:37:44.200Z,14.20
2022-10-05T07:38:44.195Z,13.90
2022-10-05T07:39:59.565Z,12.90
2022-10-05T07:40:44.176Z,12.40
2022-10-05T07:41:44.151Z,12.80
2022-10-05T07:42:50.551Z,13.10
2022-10-05T07:44:44.144Z,14.80
2022-10-05T07:45:44.127Z,12.20
2022-10-05T07:46:44.646Z,15.40
2022-10-05T07:47:44.108Z,13.20
2022-10-05T07:48:44.084Z,13.60
2022-10-05T07:49:44.063Z,13.40
2022-10-05T07:50:44.066Z,13.10
2022-10-05T07:51:44.044Z,13.10
2022-10-05T07:52:44.041Z,13.70
2022-10-05T07:53:44.038Z,11.90
2022-10-05T07:54:44.027Z,13.00
2022-10-05T07:55:43.998Z,14.00
2022-10-05T07:56:44.505Z,12.50
2022-10-05T07:57:43.977Z,12.60
2022-10-05T07:58:44.005Z,13.20
2022-10-05T07:59:43.958Z,12.60
2022-10-05T08:00:43.961Z,13.20
2022-10-05T08:01:44.022Z,13.30
2022-10-05T08:02:44.010Z,14.00
2022-10-05T08:03:43.914Z,14.10
2022-10-05T08:04:43.936Z,15.60
2022-10-05T08:05:43.897Z,13.10
2022-10-05T08:06:44.363Z,13.20
2022-10-05T08:07:43.873Z,14.40
2022-10-05T08:08:43.879Z,13.10
2022-10-05T08:09:43.884Z,11.90
2022-10-05T08:10:43.848Z,11.90
2022-10-05T08:11:44.320Z,12.80
2022-10-05T08:12:43.829Z,13.20
2022-10-05T08:13:43.811Z,13.60
2022-10-05T08:14:43.805Z,11.70
2022-10-05T08:15:43.832Z,12.10
2022-10-05T08:16:43.783Z,11.80
2022-10-05T08:17:43.760Z,12.50
2022-10-05T08:18:43.766Z,12.90
2022-10-05T08:19:43.748Z,13.40
2022-10-05T08:20:43.749Z,13.00
2022-10-05T08:21:43.758Z,14.60
2022-10-05T08:22:43.720Z,12.30
2022-10-05T08:23:43.715Z,13.90
2022-10-05T08:24:43.700Z,12.40
2022-10-05T08:25:43.678Z,11.50
2022-10-05T08:26:43.677Z,12.70
2022-10-05T08:27:44.541Z,12.00
2022-10-05T08:28:43.658Z,12.20
2022-10-05T08:29:43.630Z,11.90
2022-10-05T08:30:43.714Z,11.80
2022-10-05T08:31:43.610Z,10.30
2022-10-05T08:32:43.615Z,13.10
2022-10-05T08:33:43.623Z,11.80
2022-10-05T08:34:43.596Z,10.80
2022-10-05T08:35:43.565Z,11.40
2022-10-05T08:36:43.570Z,12.20
2022-10-05T08:37:43.544Z,11.90
2022-10-05T08:38:43.549Z,11.00
2022-10-05T08:39:43.554Z,12.60
2022-10-05T08:40:43.535Z,13.00
2022-10-05T08:41:43.725Z,11.10
2022-10-05T08:42:43.514Z,10.90
2022-10-05T08:43:43.480Z,10.50
2022-10-05T08:44:43.483Z,12.10
2022-10-05T08:45:43.553Z,14.00
2022-10-05T08:46:43.463Z,10.90
2022-10-05T08:47:43.442Z,12.10
2022-10-05T08:48:43.439Z,10.00
2022-10-05T08:49:43.414Z,10.20
2022-10-05T08:50:43.430Z,10.50
2022-10-05T08:51:43.429Z,12.20
2022-10-05T08:52:43.398Z,10.60
2022-10-05T08:53:43.375Z,12.80
2022-10-05T08:54:43.394Z,10.70
2022-10-05T08:55:43.351Z,14.90
2022-10-05T08:56:43.378Z,10.60
2022-10-05T08:57:43.329Z,10.80
2022-10-05T08:58:43.333Z,11.70
2022-10-05T08:59:43.310Z,10.30
2022-10-05T09:00:43.310Z,11.30
2022-10-05T09:01:43.390Z,11.20
2022-10-05T09:02:43.371Z,11.30
2022-10-05T09:03:43.271Z,10.70
2022-10-05T09:04:43.270Z,12.00
2022-10-05T09:05:43.243Z,10.70
2022-10-05T09:06:43.249Z,11.70
2022-10-05T09:07:43.259Z,9.80
2022-10-05T09:08:43.228Z,11.40
2022-10-05T09:09:43.205Z,11.20
2022-10-05T09:10:43.219Z,12.50
2022-10-05T09:11:43.181Z,12.20
2022-10-05T09:12:43.179Z,11.00
2022-10-05T09:13:43.180Z,11.60
2022-10-05T09:14:43.162Z,11.10
2022-10-05T09:15:43.173Z,11.10
2022-10-05T09:16:43.137Z,11.60
2022-10-05T09:17:43.114Z,11.50
2022-10-05T09:18:43.141Z,11.20
2022-10-05T09:19:43.092Z,12.20
2022-10-05T09:20:43.095Z,10.80
2022-10-05T09:21:43.086Z,12.20
2022-10-05T09:22:43.087Z,11.50
2022-10-05T09:23:43.051Z,12.20
2022-10-05T09:24:48.241Z,10.00
2022-10-05T09:25:43.038Z,10.70
2022-10-05T09:26:43.038Z,10.70
2022-10-05T09:27:43.003Z,11.70
2022-10-05T09:28:43.078Z,11.70
2022-10-05T09:29:42.984Z,10.60
2022-10-05T09:30:43.121Z,11.80
2022-10-05T09:31:42.962Z,10.80
2022-10-05T09:32:42.966Z,10.90
2022-10-05T09:33:42.941Z,10.10
2022-10-05T09:34:42.992Z,11.40
2022-10-05T09:35:42.922Z,10.70
2022-10-05T09:36:42.948Z,11.50
2022-10-05T09:37:42.900Z,12.20
2022-10-05T09:38:42.908Z,12.30
2022-10-05T09:39:42.936Z,11.40
2022-10-05T09:40:42.881Z,11.10
2022-10-05T09:41:42.856Z,11.20
2022-10-05T09:42:42.882Z,11.50
2022-10-05T09:43:42.833Z,10.80
2022-10-05T09:44:42.834Z,12.30
2022-10-05T09:45:42.810Z,11.60
2022-10-05T09:46:42.897Z,10.00
2022-10-05T09:47:42.789Z,10.50
2022-10-05T09:48:42.837Z,11.00
2022-10-05T09:49:42.768Z,9.40
2022-10-05T09:50:42.769Z,10.30
2022-10-05T09:51:42.744Z,11.50
2022-10-05T09:52:42.748Z,12.00
2022-10-05T09:53:42.731Z,10.50
2022-10-05T09:54:42.761Z,11.60
2022-10-05T09:55:42.714Z,13.80
2022-10-05T09:56:42.706Z,19.90
2022-10-05T09:57:42.687Z,17.80
2022-10-05T09:58:42.687Z,13.90
2022-10-05T09:59:42.658Z,10.80
2022-10-05T10:00:47.063Z,9.60
2022-10-05T10:01:42.700Z,10.10
2022-10-05T10:02:42.755Z,12.20
2022-10-05T10:03:42.618Z,9.10
2022-10-05T10:04:42.618Z,9.40
2022-10-05T10:05:42.601Z,9.70
2022-10-05T10:06:42.625Z,10.50
2022-10-05T10:07:42.577Z,8.10
2022-10-05T10:08:42.581Z,9.60
2022-10-05T10:09:42.785Z,10.20
2022-10-05T10:10:42.559Z,9.80
2022-10-05T10:11:42.642Z,8.30
2022-10-05T10:12:42.573Z,10.50
2022-10-05T10:13:42.511Z,10.50
2022-10-05T10:14:42.508Z,9.70
2022-10-05T10:15:42.521Z,9.60
2022-10-05T10:16:42.499Z,9.50
2022-10-05T10:17:42.467Z,9.90
2022-10-05T10:18:42.503Z,8.50
2022-10-05T10:19:42.444Z,8.00
2022-10-05T10:20:42.451Z,9.30
2022-10-05T10:21:42.423Z,8.50
2022-10-05T10:22:43.338Z,8.60
2022-10-05T10:23:42.397Z,9.30
2022-10-05T10:24:42.441Z,9.90
2022-10-05T10:25:42.379Z,10.00
2022-10-05T10:26:42.381Z,9.70
2022-10-05T10:27:42.370Z,9.50
2022-10-05T10:28:42.362Z,8.70
2022-10-05T10:29:42.360Z,9.30
2022-10-05T10:30:42.421Z,10.20
2022-10-05T10:31:42.353Z,7.70
2022-10-05T10:32:42.324Z,8.40
2022-10-05T10:33:42.292Z,9.10
2022-10-05T10:34:42.296Z,8.10
2022-10-05T10:35:42.323Z,7.60
2022-10-05T10:36:42.277Z,7.40
2022-10-05T10:37:42.259Z,7.80
2022-10-05T10:38:42.252Z,6.10
2022-10-05T10:39:42.229Z,9.40
2022-10-05T10:40:42.277Z,8.20
2022-10-05T10:41:42.207Z,8.20
2022-10-05T10:42:42.210Z,8.80
2022-10-05T10:43:42.228Z,7.80
2022-10-05T10:44:42.187Z,7.70
2022-10-05T10:45:42.161Z,8.30
2022-10-05T10:46:42.287Z,10.70
2022-10-05T10:47:42.141Z,9.80
2022-10-05T10:48:42.146Z,7.00
2022-10-05T10:49:42.116Z,6.70
2022-10-05T10:50:42.122Z,8.60
2022-10-05T10:51:42.101Z,8.10
2022-10-05T10:52:42.145Z,8.00
2022-10-05T10:53:42.074Z,8.20
2022-10-05T10:54:42.083Z,7.20
2022-10-05T10:55:42.057Z,7.90
2022-10-05T10:56:42.040Z,7.60
2022-10-05T10:57:42.044Z,8.00
2022-10-05T10:58:42.058Z,8.20
2022-10-05T10:59:42.024Z,8.70
2022-10-05T11:00:42.006Z,9.20
2022-10-05T11:01:42.089Z,7.50
2022-10-05T11:02:42.022Z,8.00
2022-10-05T11:03:41.981Z,7.10
2022-10-05T11:04:41.981Z,6.80
2022-10-05T11:05:46.362Z,8.20
2022-10-05T11:06:41.941Z,9.90
2022-10-05T11:07:41.937Z,7.90
2022-10-05T11:08:41.926Z,8.20
2022-10-05T11:09:41.915Z,8.50
2022-10-05T11:10:41.917Z,8.70
2022-10-05T11:11:41.893Z,7.20
2022-10-05T11:12:41.873Z,8.20
2022-10-05T11:13:41.871Z,6.90
2022-10-05T11:14:41.849Z,6.30
2022-10-05T11:15:41.987Z,6.60
2022-10-05T11:16:41.876Z,6.80
2022-10-05T11:17:41.831Z,7.50
2022-10-05T11:18:41.808Z,7.00
2022-10-05T11:20:02.532Z,7.60
2022-10-05T11:20:41.802Z,5.90
2022-10-05T11:21:41.786Z,7.60
2022-10-05T11:22:41.795Z,8.60
2022-10-05T11:23:41.765Z,9.40
2022-10-05T11:24:41.738Z,7.80
2022-10-05T11:25:41.741Z,7.80
2022-10-05T11:26:41.717Z,6.60
2022-10-05T11:27:41.721Z,8.20
2022-10-05T11:28:41.854Z,8.30
2022-10-05T11:29:41.708Z,6.10
2022-10-05T11:30:41.682Z,6.70
2022-10-05T11:31:41.781Z,6.10
2022-10-05T11:32:41.660Z,8.10
2022-10-05T11:33:41.656Z,4.60
2022-10-05T11:34:41.665Z,6.80
2022-10-05T11:35:41.649Z,7.20
2022-10-05T11:36:41.617Z,4.50
2022-10-05T11:37:41.614Z,7.30
2022-10-05T11:38:41.598Z,7.30
2022-10-05T11:39:41.587Z,5.70
2022-10-05T11:40:41.601Z,7.30
2022-10-05T11:41:41.567Z,6.60
2022-10-05T11:42:41.545Z,5.80
2022-10-05T11:43:41.550Z,8.40
2022-10-05T11:44:41.523Z,8.30
2022-10-05T11:45:41.527Z,6.60
2022-10-05T11:46:41.594Z,6.40
2022-10-05T11:47:41.508Z,7.60
2022-10-05T11:48:41.480Z,8.90
2022-10-05T11:49:41.491Z,8.10
2022-10-05T11:50:41.461Z,4.80
2022-10-05T11:51:41.464Z,7.70
2022-10-05T11:52:41.460Z,7.00
2022-10-05T11:53:41.439Z,7.50
2022-10-05T11:55:05.942Z,8.70
2022-10-05T11:55:41.423Z,6.10
2022-10-05T11:56:41.402Z,6.10
2022-10-05T11:57:41.413Z,5.10
2022-10-05T11:58:41.402Z,7.80
2022-10-05T11:59:41.373Z,6.40
2022-10-05T12:00:41.353Z,5.20
2022-10-05T12:01:41.359Z,6.70
2022-10-05T12:02:42.937Z,5.40
2022-10-05T12:03:41.452Z,5.60
2022-10-05T12:04:41.335Z,5.50
2022-10-05T12:05:41.310Z,4.40
2022-10-05T12:06:41.291Z,5.20
2022-10-05T12:07:41.291Z,5.20
2022-10-05T12:08:41.269Z,5.10
2022-10-05T12:09:41.276Z,5.30
2022-10-05T12:10:41.273Z,7.20
2022-10-05T12:11:41.246Z,5.30
2022-10-05T12:12:41.227Z,5.60
2022-10-05T12:13:41.225Z,5.80
2022-10-05T12:14:41.207Z,4.30
2022-10-05T12:15:41.273Z,5.80
2022-10-05T12:16:41.198Z,7.10
2022-10-05T12:17:41.192Z,4.70
2022-10-05T12:18:41.156Z,5.90
2022-10-05T12:19:41.165Z,6.70
2022-10-05T12:20:41.140Z,6.20
2022-10-05T12:21:41.141Z,5.60
2022-10-05T12:22:41.150Z,5.10
2022-10-05T12:23:41.121Z,5.10
2022-10-05T12:24:41.087Z,4.50
2022-10-05T12:25:41.101Z,6.70
2022-10-05T12:26:41.073Z,7.30
2022-10-05T12:27:41.076Z,4.80
2022-10-05T12:28:41.080Z,5.20
2022-10-05T12:29:41.055Z,4.20
2022-10-05T12:30:41.026Z,5.70
2022-10-05T12:31:41.096Z,4.80
2022-10-05T12:32:41.007Z,5.80
2022-10-05T12:33:41.029Z,4.20
2022-10-05T12:34:41.019Z,5.60
2022-10-05T12:35:48.283Z,4.20
2022-10-05T12:37:03.173Z,7.80
2022-10-05T12:37:40.975Z,5.30
2022-10-05T12:38:40.937Z,3.90
2022-10-05T12:39:40.943Z,5.40
2022-10-05T12:40:40.946Z,7.60
2022-10-05T12:41:40.918Z,5.90
2022-10-05T12:42:41.972Z,7.90
2022-10-05T12:43:40.909Z,5.60
2022-10-05T12:44:40.873Z,4.70
2022-10-05T12:45:40.932Z,6.70
2022-10-05T12:46:40.876Z,5.30
2022-10-05T12:47:40.858Z,4.90
2022-10-05T12:48:40.831Z,4.40
2022-10-05T12:49:40.831Z,4.70
2022-10-05T12:50:40.814Z,4.00
2022-10-05T12:51:40.811Z,5.20
2022-10-05T12:52:40.812Z,6.10
2022-10-05T12:53:40.794Z,5.50
2022-10-05T12:54:40.783Z,5.50
2022-10-05T12:55:40.789Z,6.30
2022-10-05T12:56:40.749Z,5.20
2022-10-05T12:57:40.745Z,6.20
2022-10-05T12:58:40.763Z,5.70
2022-10-05T12:59:40.757Z,3.80
2022-10-05T13:00:40.739Z,4.50
2022-10-05T13:01:40.743Z,5.30
2022-10-05T13:02:40.680Z,5.10
2022-10-05T13:03:40.680Z,4.80
2022-10-05T13:04:40.696Z,5.60
2022-10-05T13:05:40.703Z,8.70
2022-10-05T13:06:40.632Z,5.80
2022-10-05T13:07:40.648Z,4.10
2022-10-05T13:08:40.624Z,5.40
2022-10-05T13:09:40.617Z,5.50
2022-10-05T13:10:40.622Z,4.40
2022-10-05T13:11:40.613Z,7.30
2022-10-05T13:12:40.570Z,4.30
2022-10-05T13:13:40.572Z,4.30
2022-10-05T13:14:40.552Z,4.60
2022-10-05T13:15:40.550Z,5.70
2022-10-05T13:16:40.650Z,4.50
2022-10-05T13:17:40.544Z,4.10
2022-10-05T13:18:40.504Z,4.20
2022-10-05T13:19:40.507Z,5.20
2022-10-05T13:20:40.486Z,4.90
2022-10-05T13:21:40.858Z,3.50
2022-10-05T13:22:40.503Z,5.80
2022-10-05T13:23:40.459Z,4.60
2022-10-05T13:24:40.454Z,6.50
2022-10-05T13:25:40.441Z,4.60
2022-10-05T13:26:40.412Z,6.30
2022-10-05T13:27:40.424Z,6.30
2022-10-05T13:28:40.419Z,5.70
2022-10-05T13:29:40.405Z,6.00
2022-10-05T13:30:40.373Z,4.70
2022-10-05T13:31:40.399Z,4.80
2022-10-05T13:32:40.351Z,4.40
2022-10-05T13:33:40.353Z,3.70
2022-10-05T13:34:40.363Z,4.50
2022-10-05T13:35:40.333Z,4.70
2022-10-05T13:36:40.303Z,4.70
2022-10-05T13:37:40.316Z,4.20
2022-10-05T13:38:40.285Z,5.30
2022-10-05T13:39:40.290Z,4.60
2022-10-05T13:40:40.298Z,5.10
2022-10-05T13:41:40.268Z,5.60
2022-10-05T13:42:40.244Z,4.00
2022-10-05T13:43:40.260Z,6.40
2022-10-05T13:44:40.229Z,5.20
2022-10-05T13:45:40.311Z,4.00
2022-10-05T13:46:40.239Z,4.10
2022-10-05T13:47:40.197Z,4.30
2022-10-05T13:48:40.212Z,3.20
2022-10-05T13:49:40.221Z,3.20
2022-10-05T13:50:40.153Z,3.80
2022-10-05T13:51:40.152Z,3.50
2022-10-05T13:52:40.307Z,4.00
2022-10-05T13:53:40.132Z,4.10
2022-10-05T13:54:40.106Z,4.80
2022-10-05T13:55:40.374Z,5.10
2022-10-05T13:56:40.123Z,4.20
2022-10-05T13:57:40.087Z,4.00
2022-10-05T13:58:40.104Z,4.40
2022-10-05T13:59:40.068Z,4.10
2022-10-05T14:00:40.041Z,4.10
2022-10-05T14:01:40.045Z,5.50
2022-10-05T14:02:40.028Z,4.50
2022-10-05T14:03:40.030Z,3.50
2022-10-05T14:04:40.032Z,4.10
2022-10-05T14:05:40.003Z,4.60
2022-10-05T14:06:39.983Z,4.60
2022-10-05T14:07:39.981Z,4.40
2022-10-05T14:08:39.956Z,4.70
2022-10-05T14:09:39.964Z,4.80
2022-10-05T14:10:39.988Z,5.20
2022-10-05T14:11:39.934Z,5.80
2022-10-05T14:12:39.912Z,4.70
2022-10-05T14:13:39.920Z,4.30
2022-10-05T14:14:39.886Z,5.90
2022-10-05T14:15:42.298Z,3.30
2022-10-05T14:16:39.959Z,4.10
2022-10-05T14:17:39.869Z,4.90
2022-10-05T14:18:39.843Z,4.30
2022-10-05T14:19:39.848Z,4.40
2022-10-05T14:20:39.836Z,4.60
2022-10-05T14:21:39.823Z,5.00
2022-10-05T14:22:39.857Z,4.00
2022-10-05T14:23:39.802Z,5.10
2022-10-05T14:24:43.974Z,5.00
2022-10-05T14:25:39.788Z,3.40
2022-10-05T14:26:39.757Z,5.30
2022-10-05T14:27:39.765Z,4.10
2022-10-05T14:28:39.793Z,4.80
2022-10-05T14:29:39.734Z,4.50
2022-10-05T14:30:39.711Z,4.20
2022-10-05T14:31:39.757Z,3.60
2022-10-05T14:32:39.690Z,4.80
2022-10-05T14:33:39.694Z,4.20
2022-10-05T14:34:39.804Z,4.20
2022-10-05T14:35:39.673Z,3.50
2022-10-05T14:36:39.644Z,6.20
2022-10-05T14:37:39.648Z,4.90
2022-10-05T14:38:39.651Z,4.40
2022-10-05T14:39:39.628Z,3.60
2022-10-05T14:40:39.639Z,3.40
2022-10-05T14:41:39.621Z,3.90
2022-10-05T14:42:42.653Z,5.30
2022-10-05T14:43:39.589Z,3.00
2022-10-05T14:44:39.559Z,3.70
2022-10-05T14:45:39.611Z,3.20
2022-10-05T14:46:39.613Z,3.90
2022-10-05T14:47:39.537Z,5.00
2022-10-05T14:48:39.515Z,6.70
2022-10-05T14:49:39.517Z,3.30
2022-10-05T14:50:39.493Z,4.20
2022-10-05T14:51:39.531Z,4.30
2022-10-05T14:52:39.468Z,3.80
2022-10-05T14:53:39.472Z,5.70
2022-10-05T14:54:39.449Z,4.00
2022-10-05T14:55:39.450Z,3.20
2022-10-05T14:56:39.426Z,3.50
2022-10-05T14:57:39.462Z,4.20
2022-10-05T14:58:39.403Z,4.30
2022-10-05T14:59:39.406Z,3.70
2022-10-05T15:00:39.432Z,3.50
2022-10-05T15:01:39.807Z,4.10
2022-10-05T15:02:39.404Z,3.90
2022-10-05T15:03:39.408Z,4.70
2022-10-05T15:04:39.338Z,2.50
2022-10-05T15:05:39.345Z,3.80
2022-10-05T15:06:39.315Z,4.30
2022-10-05T15:07:39.320Z,3.50
2022-10-05T15:08:39.296Z,3.10
2022-10-05T15:09:39.329Z,3.60
2022-10-05T15:10:39.273Z,3.90
2022-10-05T15:11:39.274Z,3.60
2022-10-05T15:12:39.265Z,3.80
2022-10-05T15:13:39.240Z,4.60
2022-10-05T15:14:39.265Z,4.30
2022-10-05T15:15:39.254Z,3.00
2022-10-05T15:16:39.279Z,4.70
2022-10-05T15:17:39.218Z,3.60
2022-10-05T15:18:39.204Z,3.70
2022-10-05T15:19:39.191Z,3.90
2022-10-05T15:20:39.193Z,3.50
2022-10-05T15:21:39.196Z,4.20
2022-10-05T15:22:39.160Z,3.70
2022-10-05T15:23:39.130Z,7.30
2022-10-05T15:24:43.494Z,2.60
2022-10-05T15:25:39.107Z,5.80
2022-10-05T15:26:39.112Z,5.70
2022-10-05T15:27:39.112Z,4.80
2022-10-05T15:28:39.156Z,4.40
2022-10-05T15:29:39.067Z,3.70
2022-10-05T15:30:39.108Z,5.00
2022-10-05T15:31:39.046Z,3.30
2022-10-05T15:32:39.052Z,3.30
2022-10-05T15:33:39.046Z,6.90
2022-10-05T15:34:39.021Z,3.80
2022-10-05T15:35:39.006Z,5.00
2022-10-05T15:36:38.999Z,4.70
2022-10-05T15:37:38.975Z,4.90
2022-10-05T15:38:38.976Z,4.80
2022-10-05T15:39:38.989Z,3.50
2022-10-05T15:40:38.959Z,4.00
2022-10-05T15:41:38.936Z,3.20
2022-10-05T15:42:38.934Z,4.80
2022-10-05T15:43:38.914Z,3.50
2022-10-05T15:44:38.916Z,5.40
2022-10-05T15:45:38.945Z,3.40
2022-10-05T15:46:38.888Z,4.70
2022-10-05T15:47:38.872Z,4.50
2022-10-05T15:48:38.871Z,5.50
2022-10-05T15:49:38.846Z,5.70
2022-10-05T15:50:38.847Z,6.10
2022-10-05T15:51:38.862Z,3.10
2022-10-05T15:52:38.828Z,3.70
2022-10-05T15:53:38.813Z,5.00
2022-10-05T15:54:38.834Z,4.70
2022-10-05T15:55:38.776Z,2.60
2022-10-05T15:56:38.790Z,3.90
2022-10-05T15:57:38.779Z,3.10
2022-10-05T15:58:38.774Z,4.80
2022-10-05T15:59:38.737Z,5.10
2022-10-05T16:00:38.738Z,3.90
2022-10-05T16:01:38.733Z,5.80
2022-10-05T16:02:38.764Z,4.60
2022-10-05T16:03:38.730Z,4.00
2022-10-05T16:04:38.697Z,3.00
2022-10-05T16:05:38.669Z,5.50
2022-10-05T16:06:38.672Z,2.50
2022-10-05T16:07:38.648Z,3.60
2022-10-05T16:08:38.651Z,2.90
2022-10-05T16:09:38.655Z,3.40
2022-10-05T16:10:38.625Z,4.80
2022-10-05T16:11:38.606Z,3.90
2022-10-05T16:12:38.604Z,4.30
2022-10-05T16:13:38.581Z,5.10
2022-10-05T16:14:38.582Z,4.40
2022-10-05T16:15:38.582Z,3.70
2022-10-05T16:16:38.636Z,3.50
2022-10-05T16:17:38.534Z,5.90
2022-10-05T16:18:38.538Z,4.50
2022-10-05T16:19:38.513Z,5.20
2022-10-05T16:20:38.517Z,4.50
2022-10-05T16:21:38.526Z,3.90
2022-10-05T16:22:42.544Z,4.70
2022-10-05T16:23:38.476Z,3.50
2022-10-05T16:24:38.471Z,4.60
2022-10-05T16:25:38.449Z,3.50
2022-10-05T16:26:38.452Z,5.40
2022-10-05T16:27:38.465Z,4.70
2022-10-05T16:28:38.529Z,5.70
2022-10-05T16:29:38.403Z,4.80
2022-10-05T16:30:38.436Z,3.80
2022-10-05T16:31:38.397Z,5.10
2022-10-05T16:32:38.389Z,3.40
2022-10-05T16:33:38.386Z,5.10
2022-10-05T16:34:38.365Z,4.30
2022-10-05T16:35:38.338Z,7.80
2022-10-05T16:36:38.342Z,7.60
2022-10-05T16:37:38.330Z,6.90